Time;durP1;ratioP1;P1;durP2;ratioP2;P2;SDS_P1;SDS_P2;PMS_P1;PMS_P2;Temp;Humidity;BMP_temperature;BMP_pressure;BME280_temperature;BME280_humidity;BME280_pressure;Samples;Min_cycle;Max_cycle;Signal;HPM_P1;HPM_P2
2023/05/23 00:01:45;;;;;;;6.53;2.17;;;;;;;18.80;61.95;100679.19;5155037;27;20449;-73
2023/05/23 00:04:15;;;;;;;6.50;2.40;;;;;;;18.74;62.14;100673.19;5154911;27;20539;-73
2023/05/23 00:06:43;;;;;;;7.70;2.57;;;;;;;18.68;62.70;100671.81;5154886;27;20461;-73
2023/05/23 00:09:10;;;;;;;6.20;1.93;;;;;;;18.61;63.02;100675.19;5155201;27;20533;-73
2023/05/23 00:11:36;;;;;;;7.77;3.00;;;;;;;18.58;63.78;100672.34;5154577;27;20437;-73
2023/05/23 00:14:03;;;;;;;6.60;2.20;;;;;;;18.52;64.22;100669.06;5154793;27;20453;-73
2023/05/23 00:16:29;;;;;;;9.30;1.90;;;;;;;18.46;64.38;100672.41;5154891;27;20438;-73
2023/05/23 00:18:58;;;;;;;6.70;2.30;;;;;;;18.39;64.34;100668.34;5154851;27;20444;-71
2023/05/23 00:21:26;;;;;;;11.93;3.23;;;;;;;18.33;64.70;100664.28;5154747;27;20453;-71
2023/05/23 00:23:52;;;;;;;8.10;2.50;;;;;;;18.28;65.04;100660.97;5154751;27;20483;-71
2023/05/23 00:26:20;;;;;;;15.33;2.57;;;;;;;18.22;65.64;100660.44;5154704;27;20851;-69
2023/05/23 00:28:47;;;;;;;7.20;2.10;;;;;;;18.16;65.25;100659.09;5154793;27;20442;-73
2023/05/23 00:31:13;;;;;;;9.43;2.40;;;;;;;18.10;64.90;100661.28;5154788;27;20481;-73
2023/05/23 00:33:40;;;;;;;9.80;2.57;;;;;;;18.05;65.06;100658.00;5154660;27;20502;-73
2023/05/23 00:36:08;;;;;;;8.83;2.10;;;;;;;18.00;65.21;100652.78;5154373;27;20521;-73
2023/05/23 00:38:34;;;;;;;6.30;2.40;;;;;;;17.96;65.95;100660.09;5154617;27;20438;-73
2023/05/23 00:41:02;;;;;;;8.97;2.90;;;;;;;17.92;65.64;100653.72;5154580;27;20438;-73
2023/05/23 00:43:28;;;;;;;12.20;3.17;;;;;;;17.84;63.06;100650.78;5154151;27;20461;-73
2023/05/23 00:45:55;;;;;;;9.20;2.80;;;;;;;17.79;60.87;100642.78;5154274;27;20829;-73
2023/05/23 00:48:22;;;;;;;7.03;2.37;;;;;;;17.65;61.72;100643.16;5154181;27;20524;-73
2023/05/23 00:50:48;;;;;;;7.30;2.70;;;;;;;17.60;63.57;100648.09;5154259;27;20477;-72
2023/05/23 00:53:16;;;;;;;7.00;2.30;;;;;;;17.58;64.91;100650.38;5154452;27;20457;-73
2023/05/23 00:55:44;;;;;;;6.40;2.30;;;;;;;17.45;65.42;100648.81;5156740;27;20453;-73
2023/05/23 00:58:12;;;;;;;6.80;2.50;;;;;;;17.48;65.50;100645.38;5158423;27;20437;-72
2023/05/23 01:00:39;;;;;;;6.00;2.33;;;;;;;17.43;65.23;100637.41;5158428;27;20479;-73
2023/05/23 01:03:05;;;;;;;6.10;2.10;;;;;;;17.37;66.40;100656.03;5158319;27;20851;-73
2023/05/23 01:05:32;;;;;;;7.50;2.17;;;;;;;17.35;66.17;100641.88;5158322;27;20566;-73
2023/05/23 01:08:01;;;;;;;7.93;2.50;;;;;;;17.33;66.74;100650.44;5157848;27;21032;-73
2023/05/23 01:10:31;;;;;;;6.80;2.20;;;;;;;17.30;67.09;100644.84;5158201;27;20502;-72
2023/05/23 01:13:09;;;;;;;6.70;2.73;;;;;;;17.27;66.93;100646.34;5157787;27;20985;-73
2023/05/23 01:15:48;;;;;;;6.70;2.30;;;;;;;17.21;68.45;100635.97;5158118;27;20501;-72
2023/05/23 01:18:19;;;;;;;8.57;2.77;;;;;;;17.23;68.87;100639.97;5158099;27;20433;-73
2023/05/23 01:20:50;;;;;;;9.43;3.00;;;;;;;17.27;68.42;100632.66;5157716;27;20848;-72
2023/05/23 01:24:02;;;;;;;7.40;2.30;;;;;;;17.28;68.17;100642.47;5157693;27;21062;-73
2023/05/23 01:26:41;;;;;;;5.90;2.10;;;;;;;17.23;68.78;100634.50;5157746;27;20437;-74
2023/05/23 01:29:13;;;;;;;7.10;2.77;;;;;;;17.27;69.16;100638.13;5157656;27;20894;-73
2023/05/23 01:31:44;;;;;;;9.50;3.57;;;;;;;17.30;69.50;100634.69;5157814;27;20509;-72
2023/05/23 01:34:12;;;;;;;8.80;2.70;;;;;;;17.24;70.30;100619.66;5157694;27;20449;-72
2023/05/23 01:36:42;;;;;;;7.17;2.37;;;;;;;17.25;69.95;100625.91;5157672;27;20434;-73
2023/05/23 01:39:09;;;;;;;7.20;2.50;;;;;;;17.21;69.71;100625.00;5157606;27;20517;-72
2023/05/23 01:41:36;;;;;;;10.37;2.63;;;;;;;17.24;70.15;100618.84;5157574;27;20434;-73
2023/05/23 01:44:03;;;;;;;16.50;3.00;;;;;;;17.23;69.86;100623.53;5157484;27;20829;-72
2023/05/23 01:46:34;;;;;;;9.03;2.60;;;;;;;17.21;69.84;100619.53;5157128;27;20934;-72
2023/05/23 01:49:01;;;;;;;6.47;2.50;;;;;;;17.13;70.42;100613.88;5157558;27;20505;-72
2023/05/23 01:51:29;;;;;;;6.40;2.47;;;;;;;17.14;71.36;100620.94;5157369;27;20441;-72
2023/05/23 01:53:56;;;;;;;7.60;3.10;;;;;;;17.21;70.66;100619.53;5157330;27;20469;-72
2023/05/23 01:56:25;;;;;;;8.40;2.90;;;;;;;17.20;71.10;100624.22;5157001;27;20521;-72
2023/05/23 01:58:52;;;;;;;7.77;2.60;;;;;;;17.19;70.75;100617.16;5157270;27;20795;-72
2023/05/23 02:01:18;;;;;;;6.37;2.53;;;;;;;17.14;70.05;100626.41;5156923;27;20934;-72
2023/05/23 02:03:46;;;;;;;14.43;3.23;;;;;;;17.16;70.80;100617.84;5157056;27;20556;-72
2023/05/23 02:06:13;;;;;;;9.53;3.57;;;;;;;17.15;70.98;100625.25;5156334;27;20437;-72
2023/05/23 02:08:39;;;;;;;7.93;2.37;;;;;;;17.16;69.93;100631.53;5157001;27;20488;-72
2023/05/23 02:11:07;;;;;;;7.83;2.53;;;;;;;17.17;70.19;100630.38;5157005;27;20440;-72
2023/05/23 02:13:34;;;;;;;10.87;3.30;;;;;;;17.15;68.92;100627.19;5156886;27;20462;-72
2023/05/23 02:16:00;;;;;;;7.17;2.27;;;;;;;17.14;68.23;100620.13;5156953;27;20473;-73
2023/05/23 02:18:28;;;;;;;7.50;2.17;;;;;;;17.13;68.66;100626.72;5156574;27;20430;-72
2023/05/23 02:20:56;;;;;;;7.43;2.83;;;;;;;17.14;70.23;100620.94;5156812;27;20442;-72
2023/05/23 02:23:22;;;;;;;9.30;3.33;;;;;;;17.13;69.80;100627.56;5156768;27;20453;-72
2023/05/23 02:25:49;;;;;;;7.47;2.73;;;;;;;17.14;70.64;100628.34;5156373;27;20430;-72
2023/05/23 02:28:16;;;;;;;6.33;2.30;;;;;;;17.10;70.16;100628.22;5156278;27;20482;-73
2023/05/23 02:30:42;;;;;;;9.27;3.17;;;;;;;17.06;69.80;100627.31;5156130;27;20930;-73
2023/05/23 02:33:09;;;;;;;7.47;2.53;;;;;;;17.10;69.99;100632.91;5156228;27;20453;-73
2023/05/23 02:35:36;;;;;;;9.10;2.80;;;;;;;17.11;70.31;100629.03;5156187;27;20442;-73
2023/05/23 02:38:04;;;;;;;7.43;2.73;;;;;;;17.14;69.66;100631.88;5156496;27;20472;-73
2023/05/23 02:40:31;;;;;;;8.87;3.50;;;;;;;17.18;69.72;100622.94;5156299;27;20456;-73
2023/05/23 02:42:57;;;;;;;8.60;3.20;;;;;;;17.17;71.50;100619.41;5156403;27;20477;-73
2023/05/23 02:45:24;;;;;;;6.20;2.53;;;;;;;17.16;72.42;100617.84;5156038;27;21115;-73
2023/05/23 02:47:51;;;;;;;8.47;3.30;;;;;;;17.13;72.62;100607.56;5155849;27;20513;-74
2023/05/23 02:50:17;;;;;;;7.20;2.90;;;;;;;17.08;71.81;100594.13;5156160;27;20433;-73
2023/05/23 02:52:44;;;;;;;6.57;2.20;;;;;;;17.05;71.20;100583.88;5156188;27;20481;-73
2023/05/23 02:55:12;;;;;;;6.60;2.47;;;;;;;17.10;70.18;100592.66;5155789;27;20469;-73
2023/05/23 02:57:38;;;;;;;8.23;2.77;;;;;;;17.10;69.55;100602.81;5155791;27;20484;-73
2023/05/23 03:00:08;;;;;;;6.80;2.80;;;;;;;16.97;68.51;100606.69;5155727;27;20436;-73
2023/05/23 03:02:35;;;;;;;6.80;2.93;;;;;;;16.90;69.49;100602.56;5156014;27;20441;-73
2023/05/23 03:05:02;;;;;;;7.40;3.00;;;;;;;16.83;71.10;100599.63;5155856;27;20468;-74
2023/05/23 03:07:29;;;;;;;10.23;3.03;;;;;;;16.89;70.45;100602.94;5155751;27;20489;-73
2023/05/23 03:09:55;;;;;;;7.63;2.80;;;;;;;16.92;70.37;100607.72;5155535;27;20485;-73
2023/05/23 03:12:23;;;;;;;6.90;3.00;;;;;;;16.94;70.43;100601.91;5155844;27;20537;-73
2023/05/23 03:14:50;;;;;;;9.40;2.97;;;;;;;17.00;71.13;100586.81;5155540;27;20843;-73
2023/05/23 03:17:16;;;;;;;8.47;2.83;;;;;;;17.10;72.67;100591.84;5155279;27;20441;-73
2023/05/23 03:19:43;;;;;;;7.20;2.80;;;;;;;17.07;71.98;100587.06;5155285;27;20957;-72
2023/05/23 03:22:09;;;;;;;6.73;2.53;;;;;;;17.05;71.60;100594.81;5155277;27;20934;-71
2023/05/23 03:24:36;;;;;;;13.13;2.80;;;;;;;17.03;70.22;100599.84;5155517;27;20454;-70
2023/05/23 03:27:03;;;;;;;9.40;3.30;;;;;;;16.95;70.71;100601.53;5155426;27;20529;-70
2023/05/23 03:29:31;;;;;;;6.33;2.53;;;;;;;16.93;73.20;100592.91;5155477;27;20525;-71
2023/05/23 03:31:58;;;;;;;7.90;3.37;;;;;;;17.02;73.08;100590.03;5155510;27;20437;-72
2023/05/23 03:34:25;;;;;;;11.60;3.20;;;;;;;17.03;73.45;100591.63;5155012;27;20461;-72
2023/05/23 03:36:51;;;;;;;7.40;3.10;;;;;;;17.06;73.00;100591.75;5155397;27;20442;-72
2023/05/23 03:39:18;;;;;;;7.83;2.83;;;;;;;17.04;71.32;100594.00;5155055;27;20516;-72
2023/05/23 03:41:45;;;;;;;6.90;2.80;;;;;;;17.00;72.03;100592.31;5155289;27;20468;-72
2023/05/23 03:44:11;;;;;;;8.00;2.87;;;;;;;16.90;73.93;100583.41;5155202;27;20484;-72
2023/05/23 03:46:39;;;;;;;8.97;3.53;;;;;;;16.92;73.71;100585.84;5154888;27;20447;-67
2023/05/23 03:49:06;;;;;;;8.93;3.30;;;;;;;16.97;73.35;100591.06;5154815;27;21010;-67
2023/05/23 03:51:34;;;;;;;7.07;2.60;;;;;;;17.00;73.81;100589.56;5155105;27;20528;-67
2023/05/23 03:54:00;;;;;;;6.67;2.70;;;;;;;17.02;72.37;100601.78;5154670;27;20468;-67
2023/05/23 03:56:27;;;;;;;8.07;3.10;;;;;;;16.90;73.67;100594.38;5154758;27;20488;-67
2023/05/23 03:58:54;;;;;;;11.27;4.03;;;;;;;16.90;75.38;100599.84;5155111;27;20836;-67
2023/05/23 04:01:20;;;;;;;6.77;2.87;;;;;;;16.87;77.28;100599.75;5155035;27;20520;-67
2023/05/23 04:03:50;;;;;;;8.33;3.27;;;;;;;16.86;77.36;100604.41;5154953;27;20468;-67
2023/05/23 04:06:17;;;;;;;9.43;3.57;;;;;;;16.84;77.75;100606.69;5154689;27;20452;-68
2023/05/23 04:08:44;;;;;;;7.17;3.00;;;;;;;16.82;78.94;100598.03;5154491;27;20486;-68
2023/05/23 04:11:10;;;;;;;12.33;2.67;;;;;;;16.86;78.64;100592.66;5154957;27;20815;-67
2023/05/23 04:13:37;;;;;;;8.03;3.30;;;;;;;16.84;79.10;100589.47;5154421;27;20985;-67
2023/05/23 04:16:04;;;;;;;10.63;3.80;;;;;;;16.86;79.38;100592.66;5154871;27;20446;-67
2023/05/23 04:18:32;;;;;;;8.23;3.03;;;;;;;16.89;79.51;100590.03;5154731;27;20476;-68
2023/05/23 04:21:00;;;;;;;8.47;3.13;;;;;;;16.86;79.73;100587.97;5154831;27;20444;-67
2023/05/23 04:23:27;;;;;;;13.50;2.80;;;;;;;16.88;79.77;100585.72;5154694;27;20537;-67
2023/05/23 04:25:54;;;;;;;8.80;3.07;;;;;;;16.96;79.34;100577.75;5154580;27;21010;-68
2023/05/23 04:28:20;;;;;;;7.60;2.80;;;;;;;16.98;78.90;100580.91;5154845;27;20530;-67
2023/05/23 04:30:48;;;;;;;10.43;2.87;;;;;;;16.95;78.62;100578.84;5158965;27;20460;-67
2023/05/23 04:33:16;;;;;;;7.67;3.17;;;;;;;16.96;78.00;100591.41;5158797;27;20457;-67
2023/05/23 04:35:43;;;;;;;9.30;3.33;;;;;;;16.90;78.63;100588.88;5158851;27;20437;-67
2023/05/23 04:38:12;;;;;;;6.70;2.77;;;;;;;17.00;77.98;100584.09;5158823;27;20859;-67
2023/05/23 04:40:38;;;;;;;6.63;2.87;;;;;;;17.01;78.01;100582.97;5158750;27;20437;-66
2023/05/23 04:43:05;;;;;;;11.13;3.00;;;;;;;17.03;78.51;100580.69;5158676;27;20545;-67
2023/05/23 04:45:32;;;;;;;7.17;2.50;;;;;;;17.01;78.24;100582.97;5158702;27;20437;-67
2023/05/23 04:47:59;;;;;;;8.53;3.23;;;;;;;17.06;77.39;100582.72;5158600;27;20485;-67
2023/05/23 04:50:30;;;;;;;8.43;2.50;;;;;;;17.09;77.86;100579.31;5158618;27;20781;-67
2023/05/23 04:52:57;;;;;;;5.90;2.63;;;;;;;17.15;78.79;100584.19;5158522;27;20425;-67
2023/05/23 04:55:25;;;;;;;7.30;3.07;;;;;;;17.10;78.80;100587.16;5158268;27;20449;-67
2023/05/23 04:57:51;;;;;;;8.70;3.33;;;;;;;17.09;78.70;100591.06;5158503;27;20444;-67
2023/05/23 05:00:19;;;;;;;8.13;2.73;;;;;;;17.13;77.45;100596.63;5158433;27;20637;-67
2023/05/23 05:02:45;;;;;;;8.17;3.50;;;;;;;17.21;74.93;100601.16;5158388;27;20465;-67
2023/05/23 05:05:12;;;;;;;7.00;3.30;;;;;;;17.22;75.85;100597.31;5158083;27;20540;-67
2023/05/23 05:07:39;;;;;;;7.37;3.33;;;;;;;17.22;78.32;100594.56;5158012;27;20476;-67
2023/05/23 05:10:06;;;;;;;7.93;3.23;;;;;;;17.25;78.96;100595.81;5157825;27;20934;-68
2023/05/23 05:12:34;;;;;;;7.03;3.07;;;;;;;17.23;78.07;100598.09;5157826;27;20443;-67
2023/05/23 05:15:02;;;;;;;7.30;3.20;;;;;;;17.17;76.54;100597.53;5157677;27;20465;-67
2023/05/23 05:17:29;;;;;;;9.13;3.00;;;;;;;17.11;74.82;100602.44;5157951;27;20477;-67
2023/05/23 05:19:55;;;;;;;7.83;3.20;;;;;;;17.05;74.03;100606.56;5158054;27;20430;-67
2023/05/23 05:22:22;;;;;;;6.70;2.90;;;;;;;17.01;74.06;100619.34;5157896;27;20445;-67
2023/05/23 05:24:49;;;;;;;10.57;3.73;;;;;;;17.00;74.37;100609.53;5157817;27;20516;-67
2023/05/23 05:27:16;;;;;;;10.40;3.40;;;;;;;16.89;74.61;100611.13;5159013;27;20466;-70
2023/05/23 05:29:44;;;;;;;6.87;2.77;;;;;;;16.84;75.15;100609.44;5157749;27;20524;-72
2023/05/23 05:32:10;;;;;;;16.40;3.97;;;;;;;16.81;75.64;100610.09;5157788;27;20525;-71
2023/05/23 05:34:37;;;;;;;9.33;3.57;;;;;;;16.78;76.97;100607.28;5158889;27;20461;-72
2023/05/23 05:37:04;;;;;;;9.93;3.30;;;;;;;16.76;76.84;100604.06;5157449;27;20529;-69
2023/05/23 05:39:30;;;;;;;7.47;2.80;;;;;;;16.79;77.16;100609.66;5157318;27;20889;-69
2023/05/23 05:41:57;;;;;;;13.93;3.43;;;;;;;16.80;78.43;100610.47;5156261;27;20437;-69
2023/05/23 05:44:23;;;;;;;8.70;3.63;;;;;;;16.80;76.53;100605.78;5157450;27;20498;-69
2023/05/23 05:46:51;;;;;;;8.00;3.40;;;;;;;16.84;75.83;100603.97;5157511;27;20438;-69
2023/05/23 05:49:18;;;;;;;8.97;3.70;;;;;;;16.87;76.17;100600.53;5157339;27;20485;-69
2023/05/23 05:51:44;;;;;;;8.07;3.20;;;;;;;16.93;77.06;100592.91;5157061;27;20528;-69
2023/05/23 05:54:11;;;;;;;7.90;3.23;;;;;;;16.94;76.22;100591.75;5157250;27;20465;-69
2023/05/23 05:56:37;;;;;;;8.10;3.60;;;;;;;17.00;75.59;100586.81;5156810;27;20463;-70
2023/05/23 05:59:04;;;;;;;9.67;3.50;;;;;;;17.01;75.84;100591.97;5156968;27;21006;-69
2023/05/23 06:01:30;;;;;;;7.50;3.00;;;;;;;17.06;76.14;100588.22;5157191;27;20811;-69
2023/05/23 06:03:58;;;;;;;7.97;3.40;;;;;;;17.14;75.92;100585.34;5156929;27;20563;-72
2023/05/23 06:06:25;;;;;;;13.63;2.87;;;;;;;17.18;76.11;100588.19;5156716;27;21018;-73
2023/05/23 06:08:52;;;;;;;8.20;3.03;;;;;;;17.22;75.67;100589.09;5156953;27;20509;-69
2023/05/23 06:11:18;;;;;;;7.90;2.93;;;;;;;17.22;75.32;100585.53;5157033;27;20466;-71
2023/05/23 06:13:45;;;;;;;7.90;3.30;;;;;;;17.22;76.06;100580.06;5156921;27;20454;-71
2023/05/23 06:16:12;;;;;;;8.03;4.00;;;;;;;17.25;74.21;100580.16;5156925;27;20493;-71
2023/05/23 06:18:38;;;;;;;8.40;3.00;;;;;;;17.38;73.42;100581.72;5156527;27;20476;-72
2023/05/23 06:21:06;;;;;;;10.20;3.27;;;;;;;17.44;72.62;100586.97;5156868;27;20469;-70
2023/05/23 06:23:33;;;;;;;12.00;3.63;;;;;;;17.49;72.87;100592.22;5156362;27;20466;-70
2023/05/23 06:25:59;;;;;;;7.60;3.80;;;;;;;17.54;72.80;100600.19;5156697;27;20449;-70
2023/05/23 06:28:26;;;;;;;7.53;2.87;;;;;;;17.61;73.04;100605.84;5156273;27;20561;-70
2023/05/23 06:30:53;;;;;;;11.80;3.17;;;;;;;17.73;71.79;100607.75;5156628;27;20530;-70
2023/05/23 06:33:20;;;;;;;9.57;3.50;;;;;;;17.82;71.49;100617.44;5156404;27;20464;-70
2023/05/23 06:35:46;;;;;;;8.60;3.70;;;;;;;17.93;71.36;100608.72;5156548;27;20444;-70
2023/05/23 06:38:14;;;;;;;8.50;3.37;;;;;;;17.96;70.06;100605.28;5156533;27;20509;-70
2023/05/23 06:40:41;;;;;;;10.03;3.97;;;;;;;18.02;69.66;100603.91;5156437;27;20529;-70
2023/05/23 06:43:07;;;;;;;12.40;4.00;;;;;;;17.96;71.92;100603.34;5156378;27;20458;-70
2023/05/23 06:45:36;;;;;;;9.13;3.27;;;;;;;17.86;71.54;100604.63;5156081;27;21134;-70
2023/05/23 06:48:03;;;;;;;9.33;2.93;;;;;;;17.71;73.42;100599.91;5156403;27;20442;-70
2023/05/23 06:50:30;;;;;;;16.30;3.60;;;;;;;17.66;72.72;100594.63;5156253;27;20438;-70
2023/05/23 06:52:56;;;;;;;11.80;2.60;;;;;;;17.64;74.39;100596.94;5155954;27;20448;-73
2023/05/23 06:55:25;;;;;;;10.27;3.97;;;;;;;17.66;74.56;100597.38;5155897;27;20446;-69
2023/05/23 06:57:52;;;;;;;8.00;3.13;;;;;;;17.72;73.33;100603.44;5156455;27;20446;-70
2023/05/23 07:00:19;;;;;;;9.03;3.83;;;;;;;17.79;72.80;100607.19;5155871;27;20465;-70
2023/05/23 07:02:47;;;;;;;8.50;3.50;;;;;;;17.93;70.56;100606.78;5155659;27;20437;-70
2023/05/23 07:05:14;;;;;;;9.23;4.07;;;;;;;17.98;69.46;100603.00;5156011;27;20502;-70
2023/05/23 07:07:40;;;;;;;7.93;3.80;;;;;;;17.98;69.44;100608.47;5156029;27;20438;-69
2023/05/23 07:10:08;;;;;;;9.90;4.20;;;;;;;17.84;70.62;100606.94;5155483;27;21006;-70
2023/05/23 07:12:36;;;;;;;9.50;3.20;;;;;;;17.90;70.56;100605.53;5155491;27;20489;-71
2023/05/23 07:15:03;;;;;;;8.33;3.87;;;;;;;17.90;71.99;100602.81;5155771;27;20461;-70
2023/05/23 07:17:29;;;;;;;9.83;3.80;;;;;;;17.85;70.99;100594.84;5155471;27;20448;-70
2023/05/23 07:19:56;;;;;;;8.60;3.57;;;;;;;17.90;71.30;100591.84;5155712;27;20470;-70
2023/05/23 07:22:22;;;;;;;9.17;3.40;;;;;;;17.94;70.05;100589.19;5155619;27;20529;-69
2023/05/23 07:24:49;;;;;;;9.73;3.70;;;;;;;18.01;70.27;100596.81;5155543;27;20549;-70
2023/05/23 07:27:16;;;;;;;9.50;4.40;;;;;;;18.12;70.89;100593.19;5155507;27;20525;-70
2023/05/23 07:29:44;;;;;;;7.50;3.00;;;;;;;18.31;68.60;100594.44;5155019;27;21029;-70
2023/05/23 07:32:10;;;;;;;10.60;4.03;;;;;;;18.43;69.50;100604.56;5155515;27;20522;-70
2023/05/23 07:34:37;;;;;;;10.57;3.57;;;;;;;18.54;68.73;100602.84;5155300;27;20454;-70
2023/05/23 07:37:03;;;;;;;12.50;3.30;;;;;;;18.60;67.82;100599.50;5155378;27;20441;-70
2023/05/23 07:39:30;;;;;;;6.47;2.60;;;;;;;18.78;65.90;100599.97;5155018;27;21001;-70
2023/05/23 07:41:56;;;;;;;8.40;3.03;;;;;;;18.95;65.88;100606.22;5155281;27;20464;-70
2023/05/23 07:44:23;;;;;;;9.67;3.50;;;;;;;19.09;65.15;100607.34;5155156;27;20462;-70
2023/05/23 07:46:51;;;;;;;7.43;3.13;;;;;;;19.30;62.75;100607.03;5155253;27;20450;-70
2023/05/23 07:49:17;;;;;;;7.43;2.37;;;;;;;19.18;62.27;100612.63;5155059;27;20520;-70
2023/05/23 07:51:44;;;;;;;9.40;3.10;;;;;;;19.16;63.31;100612.19;5155148;27;20437;-70
2023/05/23 07:54:11;;;;;;;8.27;3.00;;;;;;;19.30;64.69;100609.78;5155066;27;20541;-70
2023/05/23 07:56:38;;;;;;;8.53;3.30;;;;;;;19.23;65.37;100606.06;5154776;27;20541;-70
2023/05/23 07:59:05;;;;;;;8.80;3.47;;;;;;;19.53;64.83;100609.88;5155057;27;20437;-70
2023/05/23 08:01:31;;;;;;;10.20;3.07;;;;;;;19.72;63.13;100608.31;5154972;27;20442;-70
2023/05/23 08:03:59;;;;;;;11.13;3.70;;;;;;;19.61;64.20;100608.88;5154519;27;20489;-70
2023/05/23 08:06:26;;;;;;;7.93;3.60;;;;;;;19.66;65.04;100605.06;5154968;27;20493;-70
2023/05/23 08:08:52;;;;;;;12.10;4.77;;;;;;;19.73;64.75;100607.13;5154526;27;21080;-70
2023/05/23 08:11:19;;;;;;;5.97;2.40;;;;;;;19.80;64.27;100613.56;5154604;27;20949;-70
2023/05/23 08:13:46;;;;;;;7.30;3.20;;;;;;;19.72;65.63;100608.31;5154556;27;20993;-70
2023/05/23 08:16:12;;;;;;;8.97;3.13;;;;;;;19.73;65.92;100613.44;5154904;27;20474;-71
2023/05/23 08:18:39;;;;;;;8.57;3.63;;;;;;;19.96;65.83;100615.44;5154851;27;20434;-71
2023/05/23 08:21:07;;;;;;;8.13;3.60;;;;;;;20.04;65.30;100617.94;5154857;27;20476;-71
2023/05/23 08:23:34;;;;;;;6.40;2.63;;;;;;;20.14;65.88;100622.88;5154692;27;20453;-71
2023/05/23 08:26:01;;;;;;;8.90;3.70;;;;;;;20.33;65.89;100621.22;5154769;27;20968;-71
2023/05/23 08:28:27;;;;;;;9.87;3.70;;;;;;;20.42;65.36;100633.59;5154779;27;20484;-71
2023/05/23 08:30:55;;;;;;;8.87;3.50;;;;;;;20.50;65.61;100631.78;5154732;27;20477;-70
2023/05/23 08:33:22;;;;;;;8.10;3.00;;;;;;;20.61;67.02;100629.22;5154319;27;20992;-71
2023/05/23 08:35:49;;;;;;;12.93;3.60;;;;;;;20.65;66.91;100633.59;5154793;27;20532;-71
2023/05/23 08:38:20;;;;;;;8.17;3.53;;;;;;;20.70;67.44;100632.50;5154714;27;20438;-71
2023/05/23 08:40:51;;;;;;;10.53;4.30;;;;;;;20.72;68.00;100629.38;5154769;27;20422;-70
2023/05/23 08:43:17;;;;;;;7.13;3.07;;;;;;;20.84;67.99;100635.47;5154630;27;20461;-71
2023/05/23 08:45:44;;;;;;;10.50;4.07;;;;;;;21.11;68.00;100636.28;5154594;27;20470;-71
2023/05/23 08:48:13;;;;;;;8.63;3.13;;;;;;;21.16;69.08;100643.41;5154596;27;20812;-71
2023/05/23 08:50:43;;;;;;;8.30;3.73;;;;;;;21.32;66.83;100646.84;5154333;27;20481;-72
2023/05/23 08:53:10;;;;;;;8.30;3.23;;;;;;;21.22;66.48;100650.22;5154229;27;21025;-72
2023/05/23 08:55:38;;;;;;;12.10;3.40;;;;;;;21.21;67.19;100645.88;5154082;27;20457;-71
2023/05/23 08:58:05;;;;;;;13.30;4.23;;;;;;;21.23;67.30;100654.56;5154527;27;20533;-72
2023/05/23 09:00:33;;;;;;;7.37;3.33;;;;;;;21.14;67.45;100660.34;5154487;27;20466;-71
2023/05/23 09:03:00;;;;;;;9.33;3.80;;;;;;;21.07;68.16;100659.41;5154131;27;20978;-72
2023/05/23 09:05:27;;;;;;;9.40;3.97;;;;;;;21.21;66.57;100656.13;5154114;27;20817;-71
2023/05/23 09:07:53;;;;;;;9.30;3.43;;;;;;;21.16;68.23;100649.75;5154407;27;20536;-71
2023/05/23 09:10:20;;;;;;;9.43;4.10;;;;;;;21.18;68.37;100654.88;5153810;27;20506;-70
2023/05/23 09:12:49;;;;;;;6.70;2.80;;;;;;;21.21;69.24;100656.13;5153381;27;20927;-71
2023/05/23 09:15:15;;;;;;;9.87;3.67;;;;;;;21.36;67.98;100658.72;5153423;27;20437;-71
2023/05/23 09:17:42;;;;;;;9.80;3.60;;;;;;;21.34;68.11;100661.06;5157442;27;20437;-71
2023/05/23 09:20:12;;;;;;;7.10;3.10;;;;;;;21.29;68.82;100663.28;5157152;27;20440;-71
2023/05/23 09:22:39;;;;;;;8.90;3.93;;;;;;;21.37;67.66;100667.78;5157792;27;20445;-70
2023/05/23 09:25:07;;;;;;;11.93;3.90;;;;;;;21.40;67.82;100676.09;5157822;27;20484;-70
2023/05/23 09:27:35;;;;;;;9.23;4.20;;;;;;;21.39;68.14;100669.00;5157801;27;20455;-71
2023/05/23 09:30:07;;;;;;;8.67;3.30;;;;;;;21.16;71.39;100670.97;5157680;27;20579;-70
2023/05/23 09:32:34;;;;;;;10.50;3.67;;;;;;;21.27;68.95;100666.44;5157769;27;20502;-70
2023/05/23 09:35:02;;;;;;;8.50;3.90;;;;;;;21.26;71.59;100670.34;5157541;27;20460;-70
2023/05/23 09:37:31;;;;;;;9.90;4.20;;;;;;;21.48;71.50;100660.47;5157638;27;20441;-69
2023/05/23 09:39:59;;;;;;;9.93;4.50;;;;;;;21.50;71.37;100669.13;5157457;27;20449;-70
2023/05/23 09:42:26;;;;;;;8.70;4.00;;;;;;;21.65;70.27;100662.66;5157553;27;20426;-70
2023/05/23 09:44:54;;;;;;;8.13;4.00;;;;;;;21.77;69.49;100671.84;5157352;27;20458;-70
2023/05/23 09:47:21;;;;;;;8.50;3.73;;;;;;;21.47;70.11;100663.56;5157337;27;20426;-70
2023/05/23 09:49:50;;;;;;;9.20;4.37;;;;;;;21.56;69.61;100667.66;5157453;27;20588;-70
2023/05/23 09:52:18;;;;;;;9.20;4.10;;;;;;;21.66;69.99;100671.72;5157458;27;20430;-70
2023/05/23 09:54:46;;;;;;;10.67;4.97;;;;;;;21.52;70.87;100671.53;5157139;27;20470;-70
2023/05/23 09:57:14;;;;;;;9.93;4.53;;;;;;;21.59;70.02;100660.59;5157371;27;20425;-70
2023/05/23 09:59:42;;;;;;;8.77;4.70;;;;;;;21.61;69.88;100669.28;5156988;27;20871;-70
2023/05/23 10:02:12;;;;;;;9.37;4.40;;;;;;;21.73;71.50;100676.50;5157239;27;20438;-70
2023/05/23 10:04:41;;;;;;;8.83;4.33;;;;;;;21.92;69.88;100668.91;5157179;27;20462;-70
2023/05/23 10:07:14;;;;;;;8.73;3.90;;;;;;;21.90;69.01;100664.91;5157192;27;20441;-73
2023/05/23 10:09:44;;;;;;;8.47;4.57;;;;;;;21.71;69.84;100667.84;5157006;27;20470;-68
2023/05/23 10:12:43;;;;;;;8.90;4.80;;;;;;;21.59;71.10;100671.63;5157361;27;20448;-70
2023/05/23 10:15:13;;;;;;;8.93;4.40;;;;;;;21.38;72.84;100677.63;5156591;27;20468;-70
2023/05/23 10:17:51;;;;;;;8.53;4.33;;;;;;;21.19;74.94;100683.22;5156857;27;20459;-69
2023/05/23 10:20:24;;;;;;;11.63;5.23;;;;;;;21.02;77.94;100679.81;5156943;27;20446;-69
2023/05/23 10:22:51;;;;;;;10.37;5.10;;;;;;;20.86;79.50;100688.22;5156878;27;20418;-69
2023/05/23 10:25:18;;;;;;;11.93;6.30;;;;;;;20.62;81.87;100683.88;5156830;27;20437;-69
2023/05/23 10:27:48;;;;;;;14.87;6.40;;;;;;;20.59;82.42;100698.41;5156396;27;20521;-70
2023/05/23 10:30:15;;;;;;;11.03;5.67;;;;;;;20.59;82.49;100692.88;5156717;27;20542;-69
2023/05/23 10:32:43;;;;;;;12.90;6.90;;;;;;;20.57;83.75;100686.94;5156612;27;20534;-69
2023/05/23 10:35:17;;;;;;;13.33;6.93;;;;;;;20.62;82.48;100688.59;5156621;27;20450;-69
2023/05/23 10:37:49;;;;;;;13.83;6.83;;;;;;;20.88;80.84;100688.66;5156330;27;20409;-70
2023/05/23 10:40:24;;;;;;;15.83;6.17;;;;;;;21.11;80.38;100698.84;5156358;27;20925;-70
2023/05/23 10:43:01;;;;;;;15.23;7.33;;;;;;;21.52;78.29;100699.09;5156500;27;20453;-69
2023/05/23 10:45:27;;;;;;;15.63;7.60;;;;;;;21.89;75.75;100699.97;5156421;27;20466;-69
2023/05/23 10:47:54;;;;;;;17.37;6.47;;;;;;;21.82;75.12;100705.41;5156050;27;20477;-70
2023/05/23 10:50:32;;;;;;;14.40;7.33;;;;;;;21.69;75.15;100706.00;5156354;27;20474;-70
2023/05/23 10:53:02;;;;;;;15.60;7.47;;;;;;;21.37;77.01;100704.38;5156521;27;20438;-69
2023/05/23 10:55:32;;;;;;;15.60;8.63;;;;;;;20.98;78.27;100702.97;5155976;27;20446;-70
2023/05/23 10:58:09;;;;;;;25.37;8.40;;;;;;;20.72;79.50;100699.00;5156236;27;20432;-69
2023/05/23 11:00:36;;;;;;;15.17;8.07;;;;;;;20.40;81.40;100703.88;5155762;27;20469;-69
2023/05/23 11:03:07;;;;;;;17.90;8.57;;;;;;;20.14;82.96;100710.06;5155987;27;20465;-70
2023/05/23 11:05:37;;;;;;;19.33;8.50;;;;;;;20.01;83.48;100706.69;5155730;27;20937;-70
2023/05/23 11:08:10;;;;;;;21.53;8.60;;;;;;;19.98;84.52;100710.16;5156251;27;20483;-70
2023/05/23 11:10:55;;;;;;;15.00;7.57;;;;;;;20.03;83.96;100709.06;5155828;27;20536;-70
2023/05/23 11:13:23;;;;;;;15.80;7.20;;;;;;;20.13;83.46;100713.97;5155831;27;20482;-70
2023/05/23 11:15:50;;;;;;;17.57;8.00;;;;;;;20.37;83.35;100712.91;5155499;27;20541;-70
2023/05/23 11:18:22;;;;;;;16.73;7.70;;;;;;;20.52;82.01;100712.00;5155783;27;20442;-70
2023/05/23 11:20:50;;;;;;;16.03;8.27;;;;;;;20.65;81.40;100718.94;5155398;27;20534;-70
2023/05/23 11:23:18;;;;;;;13.30;7.20;;;;;;;20.56;80.77;100714.84;5155607;27;20869;-70
2023/05/23 11:25:49;;;;;;;15.47;7.80;;;;;;;20.50;81.35;100706.09;5155727;27;20438;-70
2023/05/23 11:28:16;;;;;;;23.30;7.97;;;;;;;20.49;81.00;100720.19;5155952;27;20428;-70